sensor_id;sensor_type;location;lat;lon;timestamp;P1;durP1;ratioP1;P2;durP2;ratioP2
12972;SDS011;6551;51.056;9.466;2023-04-16T00:00:15;31.33;;;23.67;;
12972;SDS011;6551;51.056;9.466;2023-04-16T00:02:41;43.83;;;27.47;;
12972;SDS011;6551;51.056;9.466;2023-04-16T00:05:07;40.57;;;26.43;;
12972;SDS011;6551;51.056;9.466;2023-04-16T00:07:33;37.63;;;25.20;;
12972;SDS011;6551;51.056;9.466;2023-04-16T00:09:59;48.50;;;31.03;;
12972;SDS011;6551;51.056;9.466;2023-04-16T00:12:27;36.97;;;25.93;;
12972;SDS011;6551;51.056;9.466;2023-04-16T00:14:53;41.40;;;27.10;;
12972;SDS011;6551;51.056;9.466;2023-04-16T00:17:20;39.90;;;26.83;;
12972;SDS011;6551;51.056;9.466;2023-04-16T00:19:47;32.93;;;24.93;;
12972;SDS011;6551;51.056;9.466;2023-04-16T00:22:13;33.50;;;23.27;;
12972;SDS011;6551;51.056;9.466;2023-04-16T00:24:38;34.87;;;24.53;;
12972;SDS011;6551;51.056;9.466;2023-04-16T00:27:05;36.30;;;25.53;;
12972;SDS011;6551;51.056;9.466;2023-04-16T00:29:31;49.00;;;30.60;;
12972;SDS011;6551;51.056;9.466;2023-04-16T00:32:00;36.50;;;26.37;;
12972;SDS011;6551;51.056;9.466;2023-04-16T00:34:28;36.40;;;26.00;;
12972;SDS011;6551;51.056;9.466;2023-04-16T00:36:55;38.37;;;27.00;;
12972;SDS011;6551;51.056;9.466;2023-04-16T00:39:22;38.47;;;25.07;;
12972;SDS011;6551;51.056;9.466;2023-04-16T00:41:49;36.33;;;26.00;;
12972;SDS011;6551;51.056;9.466;2023-04-16T00:44:16;36.10;;;25.83;;
12972;SDS011;6551;51.056;9.466;2023-04-16T00:46:41;31.70;;;25.00;;
12972;SDS011;6551;51.056;9.466;2023-04-16T00:49:08;36.50;;;25.30;;
12972;SDS011;6551;51.056;9.466;2023-04-16T00:51:35;35.73;;;25.70;;
12972;SDS011;6551;51.056;9.466;2023-04-16T00:54:02;35.77;;;25.40;;
12972;SDS011;6551;51.056;9.466;2023-04-16T00:56:31;33.17;;;24.53;;
12972;SDS011;6551;51.056;9.466;2023-04-16T00:59:01;35.57;;;25.60;;
12972;SDS011;6551;51.056;9.466;2023-04-16T01:01:27;35.23;;;25.10;;
12972;SDS011;6551;51.056;9.466;2023-04-16T01:03:53;34.57;;;25.43;;
12972;SDS011;6551;51.056;9.466;2023-04-16T01:06:21;36.63;;;26.93;;
12972;SDS011;6551;51.056;9.466;2023-04-16T01:08:48;36.00;;;25.73;;
12972;SDS011;6551;51.056;9.466;2023-04-16T01:11:13;35.90;;;25.93;;
12972;SDS011;6551;51.056;9.466;2023-04-16T01:13:40;33.77;;;25.53;;
12972;SDS011;6551;51.056;9.466;2023-04-16T01:16:06;39.10;;;25.90;;
12972;SDS011;6551;51.056;9.466;2023-04-16T01:18:35;37.93;;;26.10;;
12972;SDS011;6551;51.056;9.466;2023-04-16T01:21:03;38.27;;;26.23;;
12972;SDS011;6551;51.056;9.466;2023-04-16T01:23:31;37.83;;;26.87;;
12972;SDS011;6551;51.056;9.466;2023-04-16T01:25:58;39.87;;;26.53;;
12972;SDS011;6551;51.056;9.466;2023-04-16T01:28:25;38.00;;;26.47;;
12972;SDS011;6551;51.056;9.466;2023-04-16T01:30:52;35.10;;;27.67;;
12972;SDS011;6551;51.056;9.466;2023-04-16T01:33:18;36.93;;;25.20;;
12972;SDS011;6551;51.056;9.466;2023-04-16T01:35:45;35.33;;;26.23;;
12972;SDS011;6551;51.056;9.466;2023-04-16T01:38:11;37.13;;;26.13;;
12972;SDS011;6551;51.056;9.466;2023-04-16T01:40:36;38.33;;;27.10;;
12972;SDS011;6551;51.056;9.466;2023-04-16T01:43:04;47.70;;;28.80;;
12972;SDS011;6551;51.056;9.466;2023-04-16T01:45:31;41.60;;;28.37;;
12972;SDS011;6551;51.056;9.466;2023-04-16T01:48:00;41.23;;;27.83;;
12972;SDS011;6551;51.056;9.466;2023-04-16T01:50:27;41.43;;;26.93;;
12972;SDS011;6551;51.056;9.466;2023-04-16T01:52:56;35.13;;;26.00;;
12972;SDS011;6551;51.056;9.466;2023-04-16T01:55:22;37.40;;;26.80;;
12972;SDS011;6551;51.056;9.466;2023-04-16T01:57:49;47.03;;;31.43;;
12972;SDS011;6551;51.056;9.466;2023-04-16T02:00:15;37.47;;;26.80;;
12972;SDS011;6551;51.056;9.466;2023-04-16T02:02:40;41.50;;;28.63;;
12972;SDS011;6551;51.056;9.466;2023-04-16T02:05:06;39.97;;;29.10;;
12972;SDS011;6551;51.056;9.466;2023-04-16T02:07:33;40.93;;;29.13;;
12972;SDS011;6551;51.056;9.466;2023-04-16T02:10:00;42.87;;;28.73;;
12972;SDS011;6551;51.056;9.466;2023-04-16T02:12:26;37.47;;;28.70;;
12972;SDS011;6551;51.056;9.466;2023-04-16T02:14:53;42.57;;;29.87;;
12972;SDS011;6551;51.056;9.466;2023-04-16T02:17:19;47.10;;;30.27;;
12972;SDS011;6551;51.056;9.466;2023-04-16T02:19:46;41.17;;;30.77;;
12972;SDS011;6551;51.056;9.466;2023-04-16T02:22:13;40.83;;;29.87;;
12972;SDS011;6551;51.056;9.466;2023-04-16T02:24:39;40.47;;;29.47;;
12972;SDS011;6551;51.056;9.466;2023-04-16T02:27:05;39.87;;;29.77;;
12972;SDS011;6551;51.056;9.466;2023-04-16T02:29:31;45.53;;;33.53;;
12972;SDS011;6551;51.056;9.466;2023-04-16T02:31:58;39.93;;;30.57;;
12972;SDS011;6551;51.056;9.466;2023-04-16T02:34:25;46.17;;;30.00;;
12972;SDS011;6551;51.056;9.466;2023-04-16T02:36:52;39.93;;;29.87;;
12972;SDS011;6551;51.056;9.466;2023-04-16T02:39:19;46.37;;;30.67;;
12972;SDS011;6551;51.056;9.466;2023-04-16T02:41:44;41.63;;;30.77;;
12972;SDS011;6551;51.056;9.466;2023-04-16T02:44:10;41.17;;;29.53;;
12972;SDS011;6551;51.056;9.466;2023-04-16T02:46:37;39.83;;;30.13;;
12972;SDS011;6551;51.056;9.466;2023-04-16T02:49:04;42.20;;;29.93;;
12972;SDS011;6551;51.056;9.466;2023-04-16T02:51:30;42.53;;;29.70;;
12972;SDS011;6551;51.056;9.466;2023-04-16T02:53:57;45.13;;;30.00;;
12972;SDS011;6551;51.056;9.466;2023-04-16T02:56:22;40.57;;;29.67;;
12972;SDS011;6551;51.056;9.466;2023-04-16T02:58:48;46.70;;;31.23;;
12972;SDS011;6551;51.056;9.466;2023-04-16T03:01:14;41.57;;;30.97;;
12972;SDS011;6551;51.056;9.466;2023-04-16T03:03:41;43.13;;;29.70;;
12972;SDS011;6551;51.056;9.466;2023-04-16T03:06:06;39.33;;;29.80;;
12972;SDS011;6551;51.056;9.466;2023-04-16T03:08:32;42.07;;;31.40;;
12972;SDS011;6551;51.056;9.466;2023-04-16T03:10:59;41.33;;;29.70;;
12972;SDS011;6551;51.056;9.466;2023-04-16T03:13:26;39.23;;;29.87;;
12972;SDS011;6551;51.056;9.466;2023-04-16T03:15:53;41.73;;;30.37;;
12972;SDS011;6551;51.056;9.466;2023-04-16T03:18:18;37.43;;;29.43;;
12972;SDS011;6551;51.056;9.466;2023-04-16T03:20:44;41.27;;;29.47;;
12972;SDS011;6551;51.056;9.466;2023-04-16T03:23:15;38.53;;;27.80;;
12972;SDS011;6551;51.056;9.466;2023-04-16T03:25:41;36.97;;;28.53;;
12972;SDS011;6551;51.056;9.466;2023-04-16T03:28:08;36.23;;;26.30;;
12972;SDS011;6551;51.056;9.466;2023-04-16T03:30:34;35.80;;;26.77;;
12972;SDS011;6551;51.056;9.466;2023-04-16T03:33:01;33.90;;;26.30;;
12972;SDS011;6551;51.056;9.466;2023-04-16T03:35:26;32.97;;;24.80;;
12972;SDS011;6551;51.056;9.466;2023-04-16T03:37:53;29.67;;;24.37;;
12972;SDS011;6551;51.056;9.466;2023-04-16T03:40:19;29.87;;;22.73;;
12972;SDS011;6551;51.056;9.466;2023-04-16T03:42:44;29.77;;;23.10;;
12972;SDS011;6551;51.056;9.466;2023-04-16T03:45:12;28.80;;;21.47;;
12972;SDS011;6551;51.056;9.466;2023-04-16T03:47:40;28.57;;;22.13;;
12972;SDS011;6551;51.056;9.466;2023-04-16T03:50:06;26.73;;;20.57;;
12972;SDS011;6551;51.056;9.466;2023-04-16T03:52:32;29.30;;;22.13;;
12972;SDS011;6551;51.056;9.466;2023-04-16T03:54:57;30.47;;;22.73;;
12972;SDS011;6551;51.056;9.466;2023-04-16T03:57:23;38.33;;;25.57;;
12972;SDS011;6551;51.056;9.466;2023-04-16T03:59:48;36.80;;;26.13;;
12972;SDS011;6551;51.056;9.466;2023-04-16T04:02:15;29.27;;;21.13;;
12972;SDS011;6551;51.056;9.466;2023-04-16T04:04:42;39.07;;;26.93;;
12972;SDS011;6551;51.056;9.466;2023-04-16T04:07:08;29.67;;;22.57;;
12972;SDS011;6551;51.056;9.466;2023-04-16T04:09:33;36.57;;;26.20;;
12972;SDS011;6551;51.056;9.466;2023-04-16T04:11:59;27.20;;;22.33;;
12972;SDS011;6551;51.056;9.466;2023-04-16T04:14:26;30.43;;;23.87;;
12972;SDS011;6551;51.056;9.466;2023-04-16T04:16:53;27.27;;;21.23;;
12972;SDS011;6551;51.056;9.466;2023-04-16T04:19:18;26.20;;;21.37;;
12972;SDS011;6551;51.056;9.466;2023-04-16T04:21:45;32.90;;;24.90;;
12972;SDS011;6551;51.056;9.466;2023-04-16T04:24:11;36.73;;;25.80;;
12972;SDS011;6551;51.056;9.466;2023-04-16T04:26:38;29.03;;;23.17;;
12972;SDS011;6551;51.056;9.466;2023-04-16T04:29:03;30.83;;;24.10;;
12972;SDS011;6551;51.056;9.466;2023-04-16T04:31:30;30.70;;;25.07;;
12972;SDS011;6551;51.056;9.466;2023-04-16T04:33:57;32.57;;;25.23;;
12972;SDS011;6551;51.056;9.466;2023-04-16T04:36:23;45.77;;;31.07;;
12972;SDS011;6551;51.056;9.466;2023-04-16T04:38:48;36.20;;;27.03;;
12972;SDS011;6551;51.056;9.466;2023-04-16T04:41:14;31.80;;;26.10;;
12972;SDS011;6551;51.056;9.466;2023-04-16T04:43:40;32.47;;;26.37;;
12972;SDS011;6551;51.056;9.466;2023-04-16T04:46:06;31.73;;;25.63;;
12972;SDS011;6551;51.056;9.466;2023-04-16T04:48:31;31.07;;;25.07;;
12972;SDS011;6551;51.056;9.466;2023-04-16T04:50:58;34.63;;;26.40;;
12972;SDS011;6551;51.056;9.466;2023-04-16T04:53:25;34.57;;;26.60;;
12972;SDS011;6551;51.056;9.466;2023-04-16T04:55:51;34.30;;;26.10;;
12972;SDS011;6551;51.056;9.466;2023-04-16T04:58:17;33.03;;;27.07;;
12972;SDS011;6551;51.056;9.466;2023-04-16T05:00:43;34.00;;;26.43;;
12972;SDS011;6551;51.056;9.466;2023-04-16T05:03:09;37.70;;;28.30;;
12972;SDS011;6551;51.056;9.466;2023-04-16T05:05:38;40.47;;;29.77;;
12972;SDS011;6551;51.056;9.466;2023-04-16T05:08:04;36.83;;;28.43;;
12972;SDS011;6551;51.056;9.466;2023-04-16T05:10:31;37.87;;;28.17;;
12972;SDS011;6551;51.056;9.466;2023-04-16T05:12:57;37.53;;;30.07;;
12972;SDS011;6551;51.056;9.466;2023-04-16T05:15:24;43.30;;;29.57;;
12972;SDS011;6551;51.056;9.466;2023-04-16T05:17:51;41.03;;;31.33;;
12972;SDS011;6551;51.056;9.466;2023-04-16T05:20:18;42.87;;;31.37;;
12972;SDS011;6551;51.056;9.466;2023-04-16T05:22:44;41.63;;;31.30;;
12972;SDS011;6551;51.056;9.466;2023-04-16T05:25:10;47.03;;;32.27;;
12972;SDS011;6551;51.056;9.466;2023-04-16T05:27:36;40.50;;;31.37;;
12972;SDS011;6551;51.056;9.466;2023-04-16T05:30:02;42.40;;;32.93;;
12972;SDS011;6551;51.056;9.466;2023-04-16T05:32:31;44.23;;;30.80;;
12972;SDS011;6551;51.056;9.466;2023-04-16T05:34:58;42.77;;;32.60;;
12972;SDS011;6551;51.056;9.466;2023-04-16T05:37:24;42.37;;;31.37;;
12972;SDS011;6551;51.056;9.466;2023-04-16T05:39:50;41.63;;;31.17;;
12972;SDS011;6551;51.056;9.466;2023-04-16T05:42:19;40.17;;;31.53;;
12972;SDS011;6551;51.056;9.466;2023-04-16T05:44:44;37.33;;;29.43;;
12972;SDS011;6551;51.056;9.466;2023-04-16T05:47:11;45.37;;;32.17;;
12972;SDS011;6551;51.056;9.466;2023-04-16T05:49:38;45.67;;;33.37;;
12972;SDS011;6551;51.056;9.466;2023-04-16T05:52:04;58.67;;;40.73;;
12972;SDS011;6551;51.056;9.466;2023-04-16T05:54:31;54.13;;;35.97;;
12972;SDS011;6551;51.056;9.466;2023-04-16T05:56:58;49.83;;;32.63;;
12972;SDS011;6551;51.056;9.466;2023-04-16T05:59:26;40.87;;;30.83;;
12972;SDS011;6551;51.056;9.466;2023-04-16T06:01:54;62.23;;;39.53;;
12972;SDS011;6551;51.056;9.466;2023-04-16T06:04:22;40.87;;;30.77;;
12972;SDS011;6551;51.056;9.466;2023-04-16T06:06:47;38.83;;;30.97;;
12972;SDS011;6551;51.056;9.466;2023-04-16T06:09:13;39.90;;;29.53;;
12972;SDS011;6551;51.056;9.466;2023-04-16T06:11:40;36.30;;;28.53;;
12972;SDS011;6551;51.056;9.466;2023-04-16T06:14:05;39.13;;;28.47;;
12972;SDS011;6551;51.056;9.466;2023-04-16T06:16:31;34.90;;;28.07;;
12972;SDS011;6551;51.056;9.466;2023-04-16T06:18:58;35.20;;;28.17;;
12972;SDS011;6551;51.056;9.466;2023-04-16T06:21:23;37.07;;;29.57;;
12972;SDS011;6551;51.056;9.466;2023-04-16T06:23:53;40.30;;;31.17;;
12972;SDS011;6551;51.056;9.466;2023-04-16T06:26:22;37.10;;;29.37;;
12972;SDS011;6551;51.056;9.466;2023-04-16T06:28:47;39.53;;;31.60;;
12972;SDS011;6551;51.056;9.466;2023-04-16T06:31:14;38.07;;;28.77;;
12972;SDS011;6551;51.056;9.466;2023-04-16T06:33:41;39.60;;;30.87;;
12972;SDS011;6551;51.056;9.466;2023-04-16T06:36:07;35.60;;;29.50;;
12972;SDS011;6551;51.056;9.466;2023-04-16T06:38:34;39.70;;;32.10;;
12972;SDS011;6551;51.056;9.466;2023-04-16T06:41:00;42.40;;;31.60;;
12972;SDS011;6551;51.056;9.466;2023-04-16T06:43:29;40.43;;;31.77;;
12972;SDS011;6551;51.056;9.466;2023-04-16T06:45:58;35.33;;;27.27;;
12972;SDS011;6551;51.056;9.466;2023-04-16T06:48:24;36.30;;;27.00;;
12972;SDS011;6551;51.056;9.466;2023-04-16T06:50:51;31.33;;;27.07;;
12972;SDS011;6551;51.056;9.466;2023-04-16T06:53:17;33.10;;;27.60;;
12972;SDS011;6551;51.056;9.466;2023-04-16T06:55:42;35.00;;;26.73;;
12972;SDS011;6551;51.056;9.466;2023-04-16T06:58:08;32.80;;;26.00;;
12972;SDS011;6551;51.056;9.466;2023-04-16T07:00:35;43.67;;;30.03;;
12972;SDS011;6551;51.056;9.466;2023-04-16T07:03:02;31.23;;;25.57;;
12972;SDS011;6551;51.056;9.466;2023-04-16T07:05:29;34.53;;;28.87;;
12972;SDS011;6551;51.056;9.466;2023-04-16T07:07:57;40.03;;;30.93;;
12972;SDS011;6551;51.056;9.466;2023-04-16T07:10:23;34.23;;;26.90;;
12972;SDS011;6551;51.056;9.466;2023-04-16T07:12:50;32.23;;;27.13;;
12972;SDS011;6551;51.056;9.466;2023-04-16T07:15:17;55.37;;;38.30;;
12972;SDS011;6551;51.056;9.466;2023-04-16T07:17:43;38.13;;;29.00;;
12972;SDS011;6551;51.056;9.466;2023-04-16T07:20:08;41.27;;;29.43;;
12972;SDS011;6551;51.056;9.466;2023-04-16T07:22:36;40.43;;;28.93;;
12972;SDS011;6551;51.056;9.466;2023-04-16T07:25:01;43.63;;;29.57;;
12972;SDS011;6551;51.056;9.466;2023-04-16T07:27:27;35.87;;;27.10;;
12972;SDS011;6551;51.056;9.466;2023-04-16T07:29:53;41.73;;;31.70;;
12972;SDS011;6551;51.056;9.466;2023-04-16T07:32:20;43.57;;;29.57;;
12972;SDS011;6551;51.056;9.466;2023-04-16T07:34:47;40.47;;;27.53;;
12972;SDS011;6551;51.056;9.466;2023-04-16T07:37:13;41.53;;;29.73;;
12972;SDS011;6551;51.056;9.466;2023-04-16T07:39:38;36.93;;;29.00;;
12972;SDS011;6551;51.056;9.466;2023-04-16T07:42:04;34.77;;;28.07;;
12972;SDS011;6551;51.056;9.466;2023-04-16T07:44:32;39.10;;;28.90;;
12972;SDS011;6551;51.056;9.466;2023-04-16T07:46:57;35.90;;;29.13;;
12972;SDS011;6551;51.056;9.466;2023-04-16T07:49:24;37.93;;;28.80;;
12972;SDS011;6551;51.056;9.466;2023-04-16T07:51:53;37.70;;;30.07;;
12972;SDS011;6551;51.056;9.466;2023-04-16T07:54:18;39.60;;;29.37;;
12972;SDS011;6551;51.056;9.466;2023-04-16T07:56:44;40.17;;;30.07;;
12972;SDS011;6551;51.056;9.466;2023-04-16T07:59:10;33.67;;;27.73;;
12972;SDS011;6551;51.056;9.466;2023-04-16T08:01:36;37.80;;;28.57;;
12972;SDS011;6551;51.056;9.466;2023-04-16T08:04:03;32.00;;;26.47;;
12972;SDS011;6551;51.056;9.466;2023-04-16T08:06:29;37.40;;;27.07;;
12972;SDS011;6551;51.056;9.466;2023-04-16T08:08:55;37.97;;;28.87;;
12972;SDS011;6551;51.056;9.466;2023-04-16T08:11:23;37.10;;;26.50;;
12972;SDS011;6551;51.056;9.466;2023-04-16T08:13:48;36.73;;;27.47;;
12972;SDS011;6551;51.056;9.466;2023-04-16T08:16:14;42.93;;;27.50;;
12972;SDS011;6551;51.056;9.466;2023-04-16T08:18:41;39.33;;;28.37;;
12972;SDS011;6551;51.056;9.466;2023-04-16T08:21:07;37.83;;;29.00;;
12972;SDS011;6551;51.056;9.466;2023-04-16T08:23:32;34.20;;;26.63;;
12972;SDS011;6551;51.056;9.466;2023-04-16T08:25:59;33.30;;;27.40;;
12972;SDS011;6551;51.056;9.466;2023-04-16T08:28:27;38.17;;;29.53;;
12972;SDS011;6551;51.056;9.466;2023-04-16T08:30:54;37.23;;;27.17;;
12972;SDS011;6551;51.056;9.466;2023-04-16T08:33:22;33.07;;;26.47;;
12972;SDS011;6551;51.056;9.466;2023-04-16T08:35:48;34.20;;;26.50;;
12972;SDS011;6551;51.056;9.466;2023-04-16T08:38:14;36.63;;;26.53;;
12972;SDS011;6551;51.056;9.466;2023-04-16T08:40:40;31.13;;;24.43;;
12972;SDS011;6551;51.056;9.466;2023-04-16T08:43:08;37.27;;;27.27;;
12972;SDS011;6551;51.056;9.466;2023-04-16T08:45:37;31.93;;;23.57;;
12972;SDS011;6551;51.056;9.466;2023-04-16T08:48:09;26.77;;;20.27;;
12972;SDS011;6551;51.056;9.466;2023-04-16T08:50:36;29.90;;;22.17;;
12972;SDS011;6551;51.056;9.466;2023-04-16T08:53:04;30.57;;;22.73;;
12972;SDS011;6551;51.056;9.466;2023-04-16T08:55:42;27.53;;;21.17;;
12972;SDS011;6551;51.056;9.466;2023-04-16T09:00:45;25.77;;;20.13;;
12972;SDS011;6551;51.056;9.466;2023-04-16T09:03:12;25.60;;;19.07;;
12972;SDS011;6551;51.056;9.466;2023-04-16T09:05:38;21.67;;;17.87;;
12972;SDS011;6551;51.056;9.466;2023-04-16T09:08:06;24.77;;;19.07;;
12972;SDS011;6551;51.056;9.466;2023-04-16T09:10:33;22.07;;;17.37;;
12972;SDS011;6551;51.056;9.466;2023-04-16T09:13:00;21.97;;;18.57;;
12972;SDS011;6551;51.056;9.466;2023-04-16T09:15:27;23.43;;;16.87;;
12972;SDS011;6551;51.056;9.466;2023-04-16T09:17:55;21.93;;;17.43;;
12972;SDS011;6551;51.056;9.466;2023-04-16T09:20:23;29.93;;;21.10;;
12972;SDS011;6551;51.056;9.466;2023-04-16T09:22:49;21.60;;;17.50;;
12972;SDS011;6551;51.056;9.466;2023-04-16T09:25:15;20.07;;;16.53;;
12972;SDS011;6551;51.056;9.466;2023-04-16T09:27:41;21.30;;;16.93;;
12972;SDS011;6551;51.056;9.466;2023-04-16T09:30:24;24.13;;;18.50;;
12972;SDS011;6551;51.056;9.466;2023-04-16T09:33:11;20.73;;;16.13;;
12972;SDS011;6551;51.056;9.466;2023-04-16T09:35:49;23.33;;;17.47;;
12972;SDS011;6551;51.056;9.466;2023-04-16T09:38:18;26.67;;;20.27;;
12972;SDS011;6551;51.056;9.466;2023-04-16T09:40:46;23.57;;;18.37;;
12972;SDS011;6551;51.056;9.466;2023-04-16T09:43:12;26.50;;;18.60;;
12972;SDS011;6551;51.056;9.466;2023-04-16T09:45:50;28.33;;;19.37;;
12972;SDS011;6551;51.056;9.466;2023-04-16T09:48:31;23.73;;;18.23;;
12972;SDS011;6551;51.056;9.466;2023-04-16T09:50:59;25.50;;;18.50;;
12972;SDS011;6551;51.056;9.466;2023-04-16T09:53:30;25.63;;;19.27;;
12972;SDS011;6551;51.056;9.466;2023-04-16T09:56:01;24.93;;;19.13;;
12972;SDS011;6551;51.056;9.466;2023-04-16T09:58:31;25.53;;;18.57;;
12972;SDS011;6551;51.056;9.466;2023-04-16T10:01:07;33.20;;;23.03;;
12972;SDS011;6551;51.056;9.466;2023-04-16T10:03:36;30.27;;;21.73;;
12972;SDS011;6551;51.056;9.466;2023-04-16T10:08:48;29.60;;;21.70;;
12972;SDS011;6551;51.056;9.466;2023-04-16T10:11:17;40.17;;;28.03;;
12972;SDS011;6551;51.056;9.466;2023-04-16T10:13:44;37.53;;;24.30;;
12972;SDS011;6551;51.056;9.466;2023-04-16T10:16:12;36.70;;;24.27;;
12972;SDS011;6551;51.056;9.466;2023-04-16T10:18:41;38.80;;;25.90;;
12972;SDS011;6551;51.056;9.466;2023-04-16T10:21:09;32.07;;;23.23;;
12972;SDS011;6551;51.056;9.466;2023-04-16T10:23:37;27.33;;;21.87;;
12972;SDS011;6551;51.056;9.466;2023-04-16T10:26:04;34.33;;;22.10;;
12972;SDS011;6551;51.056;9.466;2023-04-16T10:28:31;28.10;;;20.63;;
12972;SDS011;6551;51.056;9.466;2023-04-16T10:31:04;29.13;;;21.63;;
12972;SDS011;6551;51.056;9.466;2023-04-16T10:33:36;31.70;;;22.57;;
12972;SDS011;6551;51.056;9.466;2023-04-16T10:36:08;32.47;;;22.73;;
12972;SDS011;6551;51.056;9.466;2023-04-16T10:38:38;34.87;;;23.83;;
12972;SDS011;6551;51.056;9.466;2023-04-16T10:41:08;34.07;;;24.30;;
12972;SDS011;6551;51.056;9.466;2023-04-16T10:43:44;33.23;;;24.60;;
12972;SDS011;6551;51.056;9.466;2023-04-16T10:46:16;34.07;;;23.50;;
12972;SDS011;6551;51.056;9.466;2023-04-16T10:48:48;32.93;;;24.10;;
12972;SDS011;6551;51.056;9.466;2023-04-16T10:51:30;38.87;;;24.53;;
12972;SDS011;6551;51.056;9.466;2023-04-16T10:54:03;35.07;;;24.90;;
12972;SDS011;6551;51.056;9.466;2023-04-16T10:56:34;37.67;;;25.27;;
12972;SDS011;6551;51.056;9.466;2023-04-16T10:59:04;34.33;;;25.77;;
12972;SDS011;6551;51.056;9.466;2023-04-16T11:12:13;36.23;;;24.67;;
12972;SDS011;6551;51.056;9.466;2023-04-16T11:14:41;38.53;;;25.53;;
12972;SDS011;6551;51.056;9.466;2023-04-16T11:17:07;34.87;;;25.67;;
12972;SDS011;6551;51.056;9.466;2023-04-16T11:19:36;34.53;;;23.93;;
12972;SDS011;6551;51.056;9.466;2023-04-16T11:22:04;35.07;;;24.73;;
12972;SDS011;6551;51.056;9.466;2023-04-16T11:24:30;31.33;;;22.83;;
12972;SDS011;6551;51.056;9.466;2023-04-16T11:26:56;30.67;;;23.20;;
12972;SDS011;6551;51.056;9.466;2023-04-16T11:29:22;34.47;;;24.43;;
12972;SDS011;6551;51.056;9.466;2023-04-16T11:31:52;35.47;;;25.57;;
12972;SDS011;6551;51.056;9.466;2023-04-16T11:34:19;33.33;;;24.50;;
12972;SDS011;6551;51.056;9.466;2023-04-16T11:36:45;37.87;;;25.93;;
12972;SDS011;6551;51.056;9.466;2023-04-16T11:39:13;34.70;;;22.90;;
12972;SDS011;6551;51.056;9.466;2023-04-16T11:41:41;34.27;;;24.67;;
12972;SDS011;6551;51.056;9.466;2023-04-16T11:44:18;32.53;;;23.77;;
12972;SDS011;6551;51.056;9.466;2023-04-16T11:46:53;31.00;;;22.67;;
12972;SDS011;6551;51.056;9.466;2023-04-16T11:49:28;32.53;;;23.60;;
12972;SDS011;6551;51.056;9.466;2023-04-16T11:51:55;33.37;;;23.40;;
12972;SDS011;6551;51.056;9.466;2023-04-16T11:54:23;31.37;;;22.50;;
12972;SDS011;6551;51.056;9.466;2023-04-16T11:56:50;31.97;;;24.37;;
12972;SDS011;6551;51.056;9.466;2023-04-16T11:59:21;29.77;;;22.13;;
12972;SDS011;6551;51.056;9.466;2023-04-16T12:01:51;30.63;;;23.77;;
12972;SDS011;6551;51.056;9.466;2023-04-16T12:04:23;34.00;;;24.70;;
12972;SDS011;6551;51.056;9.466;2023-04-16T12:07:09;31.77;;;24.17;;
12972;SDS011;6551;51.056;9.466;2023-04-16T12:09:39;32.03;;;22.23;;
12972;SDS011;6551;51.056;9.466;2023-04-16T12:14:56;35.13;;;22.13;;
12972;SDS011;6551;51.056;9.466;2023-04-16T12:17:32;35.03;;;23.20;;
12972;SDS011;6551;51.056;9.466;2023-04-16T12:20:00;29.83;;;20.53;;
12972;SDS011;6551;51.056;9.466;2023-04-16T12:22:38;33.30;;;23.70;;
12972;SDS011;6551;51.056;9.466;2023-04-16T12:25:14;30.47;;;22.87;;
12972;SDS011;6551;51.056;9.466;2023-04-16T12:27:43;29.77;;;22.57;;
12972;SDS011;6551;51.056;9.466;2023-04-16T12:30:17;32.03;;;23.70;;
12972;SDS011;6551;51.056;9.466;2023-04-16T12:32:45;29.73;;;22.53;;
12972;SDS011;6551;51.056;9.466;2023-04-16T12:35:13;30.63;;;23.53;;
12972;SDS011;6551;51.056;9.466;2023-04-16T12:37:56;29.73;;;22.27;;
12972;SDS011;6551;51.056;9.466;2023-04-16T12:40:24;30.77;;;22.80;;
12972;SDS011;6551;51.056;9.466;2023-04-16T12:42:50;30.97;;;24.07;;
12972;SDS011;6551;51.056;9.466;2023-04-16T12:45:15;29.30;;;22.83;;
12972;SDS011;6551;51.056;9.466;2023-04-16T12:47:41;31.40;;;21.07;;
12972;SDS011;6551;51.056;9.466;2023-04-16T12:50:07;30.07;;;22.83;;
12972;SDS011;6551;51.056;9.466;2023-04-16T12:52:33;28.10;;;21.83;;
12972;SDS011;6551;51.056;9.466;2023-04-16T12:55:02;28.07;;;21.90;;
12972;SDS011;6551;51.056;9.466;2023-04-16T12:57:28;33.53;;;23.50;;
12972;SDS011;6551;51.056;9.466;2023-04-16T12:59:54;31.17;;;22.40;;
12972;SDS011;6551;51.056;9.466;2023-04-16T13:02:23;30.40;;;22.07;;
12972;SDS011;6551;51.056;9.466;2023-04-16T13:04:50;28.30;;;21.00;;
12972;SDS011;6551;51.056;9.466;2023-04-16T13:07:17;28.93;;;20.73;;
12972;SDS011;6551;51.056;9.466;2023-04-16T13:09:44;29.93;;;20.33;;
12972;SDS011;6551;51.056;9.466;2023-04-16T13:12:11;29.50;;;22.03;;
12972;SDS011;6551;51.056;9.466;2023-04-16T13:14:37;30.33;;;23.13;;
12972;SDS011;6551;51.056;9.466;2023-04-16T13:17:03;33.07;;;25.67;;
12972;SDS011;6551;51.056;9.466;2023-04-16T13:19:30;29.73;;;23.33;;
12972;SDS011;6551;51.056;9.466;2023-04-16T13:21:55;33.47;;;25.13;;
12972;SDS011;6551;51.056;9.466;2023-04-16T13:24:23;33.93;;;26.40;;
12972;SDS011;6551;51.056;9.466;2023-04-16T13:26:50;31.80;;;24.57;;
12972;SDS011;6551;51.056;9.466;2023-04-16T13:29:17;39.87;;;30.13;;
12972;SDS011;6551;51.056;9.466;2023-04-16T13:31:43;32.93;;;23.07;;
12972;SDS011;6551;51.056;9.466;2023-04-16T13:34:09;30.20;;;23.23;;
12972;SDS011;6551;51.056;9.466;2023-04-16T13:36:36;30.17;;;22.90;;
12972;SDS011;6551;51.056;9.466;2023-04-16T13:39:02;31.03;;;25.03;;
12972;SDS011;6551;51.056;9.466;2023-04-16T13:41:35;35.07;;;25.00;;
12972;SDS011;6551;51.056;9.466;2023-04-16T13:44:02;33.93;;;24.73;;
12972;SDS011;6551;51.056;9.466;2023-04-16T13:46:31;33.00;;;23.17;;
12972;SDS011;6551;51.056;9.466;2023-04-16T13:48:58;35.27;;;24.80;;
12972;SDS011;6551;51.056;9.466;2023-04-16T13:51:25;34.57;;;25.07;;
12972;SDS011;6551;51.056;9.466;2023-04-16T13:53:53;30.57;;;23.03;;
12972;SDS011;6551;51.056;9.466;2023-04-16T13:56:20;32.57;;;25.40;;
12972;SDS011;6551;51.056;9.466;2023-04-16T13:58:47;32.37;;;23.80;;
12972;SDS011;6551;51.056;9.466;2023-04-16T14:01:13;31.53;;;24.27;;
12972;SDS011;6551;51.056;9.466;2023-04-16T14:03:40;28.43;;;23.63;;
12972;SDS011;6551;51.056;9.466;2023-04-16T14:06:05;30.77;;;23.33;;
12972;SDS011;6551;51.056;9.466;2023-04-16T14:08:31;34.53;;;24.03;;
12972;SDS011;6551;51.056;9.466;2023-04-16T14:10:59;29.87;;;22.67;;
12972;SDS011;6551;51.056;9.466;2023-04-16T14:13:26;32.80;;;24.33;;
12972;SDS011;6551;51.056;9.466;2023-04-16T14:15:54;29.10;;;23.50;;
12972;SDS011;6551;51.056;9.466;2023-04-16T14:18:20;37.77;;;27.93;;
12972;SDS011;6551;51.056;9.466;2023-04-16T14:20:47;31.30;;;23.63;;
12972;SDS011;6551;51.056;9.466;2023-04-16T14:23:13;31.07;;;22.93;;
12972;SDS011;6551;51.056;9.466;2023-04-16T14:25:39;31.67;;;24.77;;
12972;SDS011;6551;51.056;9.466;2023-04-16T14:28:04;31.80;;;23.10;;
12972;SDS011;6551;51.056;9.466;2023-04-16T14:30:31;28.00;;;23.03;;
12972;SDS011;6551;51.056;9.466;2023-04-16T14:32:57;32.50;;;23.47;;
12972;SDS011;6551;51.056;9.466;2023-04-16T14:35:24;31.33;;;23.90;;
12972;SDS011;6551;51.056;9.466;2023-04-16T14:37:50;31.87;;;24.27;;
12972;SDS011;6551;51.056;9.466;2023-04-16T14:40:16;33.53;;;26.03;;
12972;SDS011;6551;51.056;9.466;2023-04-16T14:42:43;32.50;;;24.77;;
12972;SDS011;6551;51.056;9.466;2023-04-16T14:45:09;34.60;;;24.50;;
12972;SDS011;6551;51.056;9.466;2023-04-16T14:47:36;31.63;;;24.57;;
12972;SDS011;6551;51.056;9.466;2023-04-16T14:50:06;35.63;;;26.60;;
12972;SDS011;6551;51.056;9.466;2023-04-16T14:52:35;34.93;;;25.87;;